Terminal Aerodrome Forecast
Issued by NWS

Home | Current Version | Previous Version | Text Only | Print | Product List | Glossary On
Versions: 1 2 3 4 5 6 7 8 9 10 11 12 13 14 15 16 17 18 19 20 21 22 23 24 25 26 27 28 29 30
323
FTUS41 KOKX 270250 AAA
TAFGON
TAF AMD
KGON 270250Z 2703/2724 VRB03KT P6SM SCT250
     FM270800 VRB03KT 5SM BR FEW008 SCT100 BKN150
     FM271300 18006KT P6SM BKN150
     FM271500 21009KT P6SM SCT150 SCT250=

USA.gov is the U.S. government's official web portal to all federal, state and local government web resources and services.